sensor_id;sensor_type;location;lat;lon;timestamp;P1;durP1;ratioP1;P2;durP2;ratioP2
26756;SDS011;23848;49.798;10.228;2023-12-20T00:02:09;6.70;;;4.18;;
26756;SDS011;23848;49.798;10.228;2023-12-20T00:07:10;6.32;;;3.85;;
26756;SDS011;23848;49.798;10.228;2023-12-20T00:09:41;5.65;;;3.45;;
26756;SDS011;23848;49.798;10.228;2023-12-20T00:12:09;5.15;;;3.30;;
26756;SDS011;23848;49.798;10.228;2023-12-20T00:14:40;6.68;;;3.75;;
26756;SDS011;23848;49.798;10.228;2023-12-20T00:17:12;6.20;;;3.40;;
26756;SDS011;23848;49.798;10.228;2023-12-20T00:19:42;5.25;;;3.00;;
26756;SDS011;23848;49.798;10.228;2023-12-20T00:22:17;4.87;;;3.13;;
26756;SDS011;23848;49.798;10.228;2023-12-20T00:24:47;6.28;;;3.78;;
26756;SDS011;23848;49.798;10.228;2023-12-20T00:27:15;4.28;;;2.65;;
26756;SDS011;23848;49.798;10.228;2023-12-20T00:29:48;6.32;;;3.00;;
26756;SDS011;23848;49.798;10.228;2023-12-20T00:34:54;3.72;;;2.50;;
26756;SDS011;23848;49.798;10.228;2023-12-20T00:37:23;4.90;;;2.88;;
26756;SDS011;23848;49.798;10.228;2023-12-20T00:39:58;4.30;;;2.55;;
26756;SDS011;23848;49.798;10.228;2023-12-20T00:42:33;3.88;;;2.63;;
26756;SDS011;23848;49.798;10.228;2023-12-20T00:45:03;4.03;;;2.40;;
26756;SDS011;23848;49.798;10.228;2023-12-20T00:47:34;4.28;;;2.67;;
26756;SDS011;23848;49.798;10.228;2023-12-20T00:50:05;3.40;;;2.38;;
26756;SDS011;23848;49.798;10.228;2023-12-20T00:52:45;3.63;;;2.10;;
26756;SDS011;23848;49.798;10.228;2023-12-20T00:55:20;4.45;;;2.35;;
26756;SDS011;23848;49.798;10.228;2023-12-20T00:57:59;4.00;;;2.15;;
26756;SDS011;23848;49.798;10.228;2023-12-20T01:00:56;3.70;;;2.20;;
26756;SDS011;23848;49.798;10.228;2023-12-20T01:06:09;3.70;;;2.20;;
26756;SDS011;23848;49.798;10.228;2023-12-20T01:08:38;4.00;;;2.08;;
26756;SDS011;23848;49.798;10.228;2023-12-20T01:11:07;3.50;;;1.80;;
26756;SDS011;23848;49.798;10.228;2023-12-20T01:13:35;3.67;;;2.03;;
26756;SDS011;23848;49.798;10.228;2023-12-20T01:16:04;4.22;;;1.77;;
26756;SDS011;23848;49.798;10.228;2023-12-20T01:18:33;3.85;;;1.92;;
26756;SDS011;23848;49.798;10.228;2023-12-20T01:21:03;3.72;;;1.88;;
26756;SDS011;23848;49.798;10.228;2023-12-20T01:23:33;3.35;;;1.98;;
26756;SDS011;23848;49.798;10.228;2023-12-20T01:26:02;3.53;;;1.80;;
26756;SDS011;23848;49.798;10.228;2023-12-20T01:28:31;5.35;;;2.30;;
26756;SDS011;23848;49.798;10.228;2023-12-20T01:31:00;2.75;;;1.50;;
26756;SDS011;23848;49.798;10.228;2023-12-20T01:33:29;3.80;;;1.95;;
26756;SDS011;23848;49.798;10.228;2023-12-20T01:35:57;2.78;;;1.52;;
26756;SDS011;23848;49.798;10.228;2023-12-20T01:38:25;3.08;;;1.50;;
26756;SDS011;23848;49.798;10.228;2023-12-20T01:40:56;3.22;;;1.58;;
26756;SDS011;23848;49.798;10.228;2023-12-20T01:43:24;2.50;;;1.40;;
26756;SDS011;23848;49.798;10.228;2023-12-20T01:45:55;3.50;;;1.58;;
26756;SDS011;23848;49.798;10.228;2023-12-20T01:48:25;2.90;;;1.33;;
26756;SDS011;23848;49.798;10.228;2023-12-20T01:50:54;2.33;;;1.27;;
26756;SDS011;23848;49.798;10.228;2023-12-20T01:53:23;2.40;;;1.20;;
26756;SDS011;23848;49.798;10.228;2023-12-20T01:55:54;1.92;;;1.02;;
26756;SDS011;23848;49.798;10.228;2023-12-20T01:58:24;1.92;;;1.10;;
26756;SDS011;23848;49.798;10.228;2023-12-20T02:00:54;2.65;;;0.95;;
26756;SDS011;23848;49.798;10.228;2023-12-20T02:03:23;1.88;;;0.95;;
26756;SDS011;23848;49.798;10.228;2023-12-20T02:05:51;1.80;;;0.90;;
26756;SDS011;23848;49.798;10.228;2023-12-20T02:08:21;1.35;;;0.60;;
26756;SDS011;23848;49.798;10.228;2023-12-20T02:10:49;2.25;;;0.88;;
26756;SDS011;23848;49.798;10.228;2023-12-20T02:13:18;1.35;;;0.80;;
26756;SDS011;23848;49.798;10.228;2023-12-20T02:15:48;1.55;;;0.70;;
26756;SDS011;23848;49.798;10.228;2023-12-20T02:18:17;1.70;;;0.50;;
26756;SDS011;23848;49.798;10.228;2023-12-20T02:20:45;1.08;;;0.60;;
26756;SDS011;23848;49.798;10.228;2023-12-20T02:23:15;1.50;;;0.70;;
26756;SDS011;23848;49.798;10.228;2023-12-20T02:25:43;0.52;;;0.30;;
26756;SDS011;23848;49.798;10.228;2023-12-20T02:28:11;1.08;;;0.57;;
26756;SDS011;23848;49.798;10.228;2023-12-20T02:30:40;1.00;;;0.50;;
26756;SDS011;23848;49.798;10.228;2023-12-20T02:33:10;0.50;;;0.30;;
26756;SDS011;23848;49.798;10.228;2023-12-20T02:35:39;0.90;;;0.50;;
26756;SDS011;23848;49.798;10.228;2023-12-20T02:38:07;0.93;;;0.52;;
26756;SDS011;23848;49.798;10.228;2023-12-20T02:40:39;0.88;;;0.40;;
26756;SDS011;23848;49.798;10.228;2023-12-20T02:43:15;0.60;;;0.40;;
26756;SDS011;23848;49.798;10.228;2023-12-20T02:45:43;0.40;;;0.30;;
26756;SDS011;23848;49.798;10.228;2023-12-20T02:48:12;0.50;;;0.40;;
26756;SDS011;23848;49.798;10.228;2023-12-20T02:50:41;0.80;;;0.50;;
26756;SDS011;23848;49.798;10.228;2023-12-20T02:53:09;0.82;;;0.40;;
26756;SDS011;23848;49.798;10.228;2023-12-20T02:55:39;0.73;;;0.45;;
26756;SDS011;23848;49.798;10.228;2023-12-20T02:58:07;0.70;;;0.40;;
26756;SDS011;23848;49.798;10.228;2023-12-20T03:00:39;0.65;;;0.40;;
26756;SDS011;23848;49.798;10.228;2023-12-20T03:03:08;1.92;;;0.52;;
26756;SDS011;23848;49.798;10.228;2023-12-20T03:05:36;0.90;;;0.40;;
26756;SDS011;23848;49.798;10.228;2023-12-20T03:08:07;0.73;;;0.45;;
26756;SDS011;23848;49.798;10.228;2023-12-20T03:10:37;0.40;;;0.40;;
26756;SDS011;23848;49.798;10.228;2023-12-20T03:13:06;0.98;;;0.40;;
26756;SDS011;23848;49.798;10.228;2023-12-20T03:15:35;0.57;;;0.30;;
26756;SDS011;23848;49.798;10.228;2023-12-20T03:18:04;0.93;;;0.57;;
26756;SDS011;23848;49.798;10.228;2023-12-20T03:20:32;0.55;;;0.47;;
26756;SDS011;23848;49.798;10.228;2023-12-20T03:23:01;0.88;;;0.40;;
26756;SDS011;23848;49.798;10.228;2023-12-20T03:25:29;0.82;;;0.40;;
26756;SDS011;23848;49.798;10.228;2023-12-20T03:27:58;0.40;;;0.30;;
26756;SDS011;23848;49.798;10.228;2023-12-20T03:30:28;0.57;;;0.30;;
26756;SDS011;23848;49.798;10.228;2023-12-20T03:32:56;0.47;;;0.32;;
26756;SDS011;23848;49.798;10.228;2023-12-20T03:35:25;0.70;;;0.32;;
26756;SDS011;23848;49.798;10.228;2023-12-20T03:37:52;0.75;;;0.40;;
26756;SDS011;23848;49.798;10.228;2023-12-20T03:40:20;0.82;;;0.43;;
26756;SDS011;23848;49.798;10.228;2023-12-20T03:42:49;0.50;;;0.30;;
26756;SDS011;23848;49.798;10.228;2023-12-20T03:45:17;0.40;;;0.40;;
26756;SDS011;23848;49.798;10.228;2023-12-20T03:47:47;2.60;;;0.50;;
26756;SDS011;23848;49.798;10.228;2023-12-20T03:50:16;0.43;;;0.32;;
26756;SDS011;23848;49.798;10.228;2023-12-20T03:52:44;0.30;;;0.30;;
26756;SDS011;23848;49.798;10.228;2023-12-20T03:55:13;0.68;;;0.40;;
26756;SDS011;23848;49.798;10.228;2023-12-20T03:57:42;0.57;;;0.38;;
26756;SDS011;23848;49.798;10.228;2023-12-20T04:00:11;0.98;;;0.40;;
26756;SDS011;23848;49.798;10.228;2023-12-20T04:02:39;0.43;;;0.32;;
26756;SDS011;23848;49.798;10.228;2023-12-20T04:05:10;0.93;;;0.40;;
26756;SDS011;23848;49.798;10.228;2023-12-20T04:07:38;0.70;;;0.30;;
26756;SDS011;23848;49.798;10.228;2023-12-20T04:10:07;0.43;;;0.30;;
26756;SDS011;23848;49.798;10.228;2023-12-20T04:12:36;0.45;;;0.30;;
26756;SDS011;23848;49.798;10.228;2023-12-20T04:15:04;0.30;;;0.30;;
26756;SDS011;23848;49.798;10.228;2023-12-20T04:17:36;0.60;;;0.32;;
26756;SDS011;23848;49.798;10.228;2023-12-20T04:20:05;0.77;;;0.40;;
26756;SDS011;23848;49.798;10.228;2023-12-20T04:22:35;0.50;;;0.32;;
26756;SDS011;23848;49.798;10.228;2023-12-20T04:25:03;0.38;;;0.30;;
26756;SDS011;23848;49.798;10.228;2023-12-20T04:27:32;0.77;;;0.40;;
26756;SDS011;23848;49.798;10.228;2023-12-20T04:30:00;0.93;;;0.40;;
26756;SDS011;23848;49.798;10.228;2023-12-20T04:32:29;0.82;;;0.45;;
26756;SDS011;23848;49.798;10.228;2023-12-20T04:34:58;1.70;;;0.50;;
26756;SDS011;23848;49.798;10.228;2023-12-20T04:37:26;0.70;;;0.40;;
26756;SDS011;23848;49.798;10.228;2023-12-20T04:39:56;1.10;;;0.45;;
26756;SDS011;23848;49.798;10.228;2023-12-20T04:42:24;0.98;;;0.43;;
26756;SDS011;23848;49.798;10.228;2023-12-20T04:44:53;1.20;;;0.60;;
26756;SDS011;23848;49.798;10.228;2023-12-20T04:47:21;0.80;;;0.47;;
26756;SDS011;23848;49.798;10.228;2023-12-20T04:49:49;0.80;;;0.40;;
26756;SDS011;23848;49.798;10.228;2023-12-20T04:52:18;0.88;;;0.43;;
26756;SDS011;23848;49.798;10.228;2023-12-20T04:54:47;0.65;;;0.45;;
26756;SDS011;23848;49.798;10.228;2023-12-20T04:57:17;0.52;;;0.30;;
26756;SDS011;23848;49.798;10.228;2023-12-20T04:59:46;0.60;;;0.40;;
26756;SDS011;23848;49.798;10.228;2023-12-20T05:02:14;0.85;;;0.52;;
26756;SDS011;23848;49.798;10.228;2023-12-20T05:04:42;0.95;;;0.50;;
26756;SDS011;23848;49.798;10.228;2023-12-20T05:07:11;1.63;;;0.63;;
26756;SDS011;23848;49.798;10.228;2023-12-20T05:09:40;1.55;;;0.70;;
26756;SDS011;23848;49.798;10.228;2023-12-20T05:12:09;0.65;;;0.43;;
26756;SDS011;23848;49.798;10.228;2023-12-20T05:14:39;1.00;;;0.45;;
26756;SDS011;23848;49.798;10.228;2023-12-20T05:17:07;0.40;;;0.30;;
26756;SDS011;23848;49.798;10.228;2023-12-20T05:19:36;0.30;;;0.30;;
26756;SDS011;23848;49.798;10.228;2023-12-20T05:22:07;0.60;;;0.40;;
26756;SDS011;23848;49.798;10.228;2023-12-20T05:24:35;0.32;;;0.30;;
26756;SDS011;23848;49.798;10.228;2023-12-20T05:27:04;0.70;;;0.43;;
26756;SDS011;23848;49.798;10.228;2023-12-20T05:29:32;0.70;;;0.50;;
26756;SDS011;23848;49.798;10.228;2023-12-20T05:32:02;0.70;;;0.40;;
26756;SDS011;23848;49.798;10.228;2023-12-20T05:34:31;0.82;;;0.50;;
26756;SDS011;23848;49.798;10.228;2023-12-20T05:37:00;0.60;;;0.50;;
26756;SDS011;23848;49.798;10.228;2023-12-20T05:39:29;1.42;;;0.70;;
26756;SDS011;23848;49.798;10.228;2023-12-20T05:41:57;1.20;;;0.60;;
26756;SDS011;23848;49.798;10.228;2023-12-20T05:44:26;1.30;;;0.68;;
26756;SDS011;23848;49.798;10.228;2023-12-20T05:46:54;1.05;;;0.55;;
26756;SDS011;23848;49.798;10.228;2023-12-20T05:49:24;1.00;;;0.60;;
26756;SDS011;23848;49.798;10.228;2023-12-20T05:51:53;0.80;;;0.50;;
26756;SDS011;23848;49.798;10.228;2023-12-20T05:54:21;1.40;;;0.60;;
26756;SDS011;23848;49.798;10.228;2023-12-20T05:56:49;0.73;;;0.43;;
26756;SDS011;23848;49.798;10.228;2023-12-20T05:59:18;1.08;;;0.60;;
26756;SDS011;23848;49.798;10.228;2023-12-20T06:01:46;1.00;;;0.60;;
26756;SDS011;23848;49.798;10.228;2023-12-20T06:04:15;1.15;;;0.50;;
26756;SDS011;23848;49.798;10.228;2023-12-20T06:06:46;1.48;;;0.70;;
26756;SDS011;23848;49.798;10.228;2023-12-20T06:09:15;1.88;;;0.60;;
26756;SDS011;23848;49.798;10.228;2023-12-20T06:11:43;0.77;;;0.57;;
26756;SDS011;23848;49.798;10.228;2023-12-20T06:14:12;1.33;;;0.77;;
26756;SDS011;23848;49.798;10.228;2023-12-20T06:16:40;1.27;;;0.77;;
26756;SDS011;23848;49.798;10.228;2023-12-20T06:19:09;1.65;;;0.85;;
26756;SDS011;23848;49.798;10.228;2023-12-20T06:21:37;1.85;;;0.90;;
26756;SDS011;23848;49.798;10.228;2023-12-20T06:24:10;1.25;;;0.70;;
26756;SDS011;23848;49.798;10.228;2023-12-20T06:26:38;1.80;;;0.90;;
26756;SDS011;23848;49.798;10.228;2023-12-20T06:29:06;1.45;;;0.80;;
26756;SDS011;23848;49.798;10.228;2023-12-20T06:31:35;1.50;;;0.82;;
26756;SDS011;23848;49.798;10.228;2023-12-20T06:34:04;1.45;;;0.70;;
26756;SDS011;23848;49.798;10.228;2023-12-20T06:36:33;2.03;;;1.00;;
26756;SDS011;23848;49.798;10.228;2023-12-20T06:39:04;1.67;;;0.80;;
26756;SDS011;23848;49.798;10.228;2023-12-20T06:41:34;1.80;;;0.90;;
26756;SDS011;23848;49.798;10.228;2023-12-20T06:44:03;2.63;;;1.10;;
26756;SDS011;23848;49.798;10.228;2023-12-20T06:46:31;1.45;;;0.88;;
26756;SDS011;23848;49.798;10.228;2023-12-20T06:49:05;1.90;;;1.00;;
26756;SDS011;23848;49.798;10.228;2023-12-20T06:51:36;2.03;;;1.15;;
26756;SDS011;23848;49.798;10.228;2023-12-20T06:54:05;2.10;;;1.08;;
26756;SDS011;23848;49.798;10.228;2023-12-20T06:56:35;1.52;;;0.80;;
26756;SDS011;23848;49.798;10.228;2023-12-20T06:59:03;2.45;;;1.20;;
26756;SDS011;23848;49.798;10.228;2023-12-20T07:01:32;2.10;;;1.10;;
26756;SDS011;23848;49.798;10.228;2023-12-20T07:04:01;2.17;;;1.10;;
26756;SDS011;23848;49.798;10.228;2023-12-20T07:06:30;2.28;;;1.30;;
26756;SDS011;23848;49.798;10.228;2023-12-20T07:09:00;2.20;;;1.10;;
26756;SDS011;23848;49.798;10.228;2023-12-20T07:11:30;2.13;;;1.20;;
26756;SDS011;23848;49.798;10.228;2023-12-20T07:14:00;1.83;;;1.00;;
26756;SDS011;23848;49.798;10.228;2023-12-20T07:16:29;1.42;;;0.82;;
26756;SDS011;23848;49.798;10.228;2023-12-20T07:19:01;2.45;;;1.48;;
26756;SDS011;23848;49.798;10.228;2023-12-20T07:21:29;2.10;;;1.02;;
26756;SDS011;23848;49.798;10.228;2023-12-20T07:23:58;4.75;;;1.73;;
26756;SDS011;23848;49.798;10.228;2023-12-20T07:26:27;3.40;;;1.90;;
26756;SDS011;23848;49.798;10.228;2023-12-20T07:28:56;2.47;;;1.42;;
26756;SDS011;23848;49.798;10.228;2023-12-20T07:31:29;2.45;;;1.33;;
26756;SDS011;23848;49.798;10.228;2023-12-20T07:33:58;2.90;;;1.60;;
26756;SDS011;23848;49.798;10.228;2023-12-20T07:36:26;2.63;;;1.58;;
26756;SDS011;23848;49.798;10.228;2023-12-20T07:38:55;2.60;;;1.63;;
26756;SDS011;23848;49.798;10.228;2023-12-20T07:41:24;3.25;;;1.83;;
26756;SDS011;23848;49.798;10.228;2023-12-20T07:43:52;2.33;;;1.48;;
26756;SDS011;23848;49.798;10.228;2023-12-20T07:46:28;2.38;;;1.75;;
26756;SDS011;23848;49.798;10.228;2023-12-20T07:48:59;2.25;;;1.30;;
26756;SDS011;23848;49.798;10.228;2023-12-20T07:51:30;3.08;;;1.80;;
26756;SDS011;23848;49.798;10.228;2023-12-20T07:53:58;3.78;;;1.73;;
26756;SDS011;23848;49.798;10.228;2023-12-20T07:56:36;2.58;;;1.35;;
26756;SDS011;23848;49.798;10.228;2023-12-20T07:59:06;2.38;;;1.42;;
26756;SDS011;23848;49.798;10.228;2023-12-20T08:01:57;3.25;;;1.38;;
26756;SDS011;23848;49.798;10.228;2023-12-20T08:06:58;3.30;;;1.60;;
26756;SDS011;23848;49.798;10.228;2023-12-20T08:09:27;2.33;;;1.35;;
26756;SDS011;23848;49.798;10.228;2023-12-20T08:11:56;2.45;;;1.20;;
26756;SDS011;23848;49.798;10.228;2023-12-20T08:14:27;3.85;;;1.63;;
26756;SDS011;23848;49.798;10.228;2023-12-20T08:16:57;3.20;;;1.40;;
26756;SDS011;23848;49.798;10.228;2023-12-20T08:19:27;2.30;;;1.30;;
26756;SDS011;23848;49.798;10.228;2023-12-20T08:21:56;3.47;;;1.55;;
26756;SDS011;23848;49.798;10.228;2023-12-20T08:24:25;3.47;;;1.60;;
26756;SDS011;23848;49.798;10.228;2023-12-20T08:26:55;2.95;;;1.65;;
26756;SDS011;23848;49.798;10.228;2023-12-20T08:29:23;2.72;;;1.50;;
26756;SDS011;23848;49.798;10.228;2023-12-20T08:31:52;3.22;;;1.73;;
26756;SDS011;23848;49.798;10.228;2023-12-20T08:34:23;5.45;;;1.42;;
26756;SDS011;23848;49.798;10.228;2023-12-20T08:36:54;4.05;;;1.25;;
26756;SDS011;23848;49.798;10.228;2023-12-20T08:39:23;4.70;;;1.95;;
26756;SDS011;23848;49.798;10.228;2023-12-20T08:41:52;2.40;;;1.38;;
26756;SDS011;23848;49.798;10.228;2023-12-20T08:44:21;2.50;;;1.35;;
26756;SDS011;23848;49.798;10.228;2023-12-20T08:46:50;3.53;;;1.40;;
26756;SDS011;23848;49.798;10.228;2023-12-20T08:49:19;3.35;;;1.65;;
26756;SDS011;23848;49.798;10.228;2023-12-20T08:51:49;4.15;;;1.67;;
26756;SDS011;23848;49.798;10.228;2023-12-20T08:54:19;4.32;;;1.38;;
26756;SDS011;23848;49.798;10.228;2023-12-20T08:56:48;3.55;;;1.45;;
26756;SDS011;23848;49.798;10.228;2023-12-20T08:59:16;2.42;;;1.50;;
26756;SDS011;23848;49.798;10.228;2023-12-20T09:01:47;3.42;;;1.30;;
26756;SDS011;23848;49.798;10.228;2023-12-20T09:04:20;3.88;;;2.10;;
26756;SDS011;23848;49.798;10.228;2023-12-20T09:06:51;3.88;;;1.92;;
26756;SDS011;23848;49.798;10.228;2023-12-20T09:09:28;3.05;;;1.45;;
26756;SDS011;23848;49.798;10.228;2023-12-20T09:11:58;2.22;;;1.30;;
26756;SDS011;23848;49.798;10.228;2023-12-20T09:14:27;2.97;;;1.48;;
26756;SDS011;23848;49.798;10.228;2023-12-20T09:16:56;2.72;;;1.25;;
26756;SDS011;23848;49.798;10.228;2023-12-20T09:19:30;2.10;;;1.20;;
26756;SDS011;23848;49.798;10.228;2023-12-20T09:22:00;1.77;;;1.10;;
26756;SDS011;23848;49.798;10.228;2023-12-20T09:24:30;2.78;;;1.23;;
26756;SDS011;23848;49.798;10.228;2023-12-20T09:26:59;2.72;;;1.48;;
26756;SDS011;23848;49.798;10.228;2023-12-20T09:29:28;3.22;;;1.70;;
26756;SDS011;23848;49.798;10.228;2023-12-20T09:32:01;7.32;;;3.30;;
26756;SDS011;23848;49.798;10.228;2023-12-20T09:34:32;4.53;;;2.83;;
26756;SDS011;23848;49.798;10.228;2023-12-20T09:37:06;5.82;;;3.45;;
26756;SDS011;23848;49.798;10.228;2023-12-20T09:39:34;4.70;;;1.58;;
26756;SDS011;23848;49.798;10.228;2023-12-20T09:42:04;2.35;;;1.30;;
26756;SDS011;23848;49.798;10.228;2023-12-20T09:44:33;2.13;;;1.02;;
26756;SDS011;23848;49.798;10.228;2023-12-20T09:47:07;2.67;;;1.38;;
26756;SDS011;23848;49.798;10.228;2023-12-20T09:49:36;1.92;;;0.98;;
26756;SDS011;23848;49.798;10.228;2023-12-20T09:52:07;2.25;;;1.00;;
26756;SDS011;23848;49.798;10.228;2023-12-20T09:54:45;2.88;;;1.02;;
26756;SDS011;23848;49.798;10.228;2023-12-20T09:57:19;2.95;;;1.08;;
26756;SDS011;23848;49.798;10.228;2023-12-20T09:59:50;3.05;;;2.00;;
26756;SDS011;23848;49.798;10.228;2023-12-20T10:02:27;3.67;;;1.40;;
26756;SDS011;23848;49.798;10.228;2023-12-20T10:05:17;2.05;;;1.08;;
26756;SDS011;23848;49.798;10.228;2023-12-20T10:07:53;2.30;;;1.23;;
26756;SDS011;23848;49.798;10.228;2023-12-20T10:10:30;3.15;;;1.58;;
26756;SDS011;23848;49.798;10.228;2023-12-20T10:13:13;2.67;;;1.00;;
26756;SDS011;23848;49.798;10.228;2023-12-20T10:15:42;2.22;;;1.00;;
26756;SDS011;23848;49.798;10.228;2023-12-20T10:18:21;2.90;;;1.00;;
26756;SDS011;23848;49.798;10.228;2023-12-20T10:21:07;2.42;;;1.48;;
26756;SDS011;23848;49.798;10.228;2023-12-20T10:23:44;2.20;;;0.90;;
26756;SDS011;23848;49.798;10.228;2023-12-20T10:26:19;2.42;;;1.30;;
26756;SDS011;23848;49.798;10.228;2023-12-20T10:28:59;2.92;;;1.30;;
26756;SDS011;23848;49.798;10.228;2023-12-20T10:31:39;2.25;;;1.10;;
26756;SDS011;23848;49.798;10.228;2023-12-20T10:34:18;2.40;;;1.27;;
26756;SDS011;23848;49.798;10.228;2023-12-20T10:36:59;2.03;;;1.10;;
26756;SDS011;23848;49.798;10.228;2023-12-20T10:45:17;2.22;;;0.85;;
26756;SDS011;23848;49.798;10.228;2023-12-20T10:48:17;1.45;;;0.75;;
26756;SDS011;23848;49.798;10.228;2023-12-20T10:51:06;2.77;;;1.00;;
26756;SDS011;23848;49.798;10.228;2023-12-20T10:54:06;5.60;;;1.85;;
26756;SDS011;23848;49.798;10.228;2023-12-20T10:56:44;2.30;;;1.05;;
26756;SDS011;23848;49.798;10.228;2023-12-20T11:02:38;2.97;;;1.00;;
26756;SDS011;23848;49.798;10.228;2023-12-20T11:05:25;1.95;;;0.90;;
26756;SDS011;23848;49.798;10.228;2023-12-20T11:08:24;3.78;;;1.10;;
26756;SDS011;23848;49.798;10.228;2023-12-20T11:11:16;2.28;;;1.20;;
26756;SDS011;23848;49.798;10.228;2023-12-20T11:14:22;4.03;;;1.00;;
26756;SDS011;23848;49.798;10.228;2023-12-20T11:17:07;2.10;;;1.20;;
26756;SDS011;23848;49.798;10.228;2023-12-20T11:23:15;3.72;;;1.10;;
26756;SDS011;23848;49.798;10.228;2023-12-20T11:25:47;2.10;;;0.90;;
26756;SDS011;23848;49.798;10.228;2023-12-20T11:28:47;2.78;;;1.08;;
26756;SDS011;23848;49.798;10.228;2023-12-20T11:31:48;3.97;;;1.13;;
26756;SDS011;23848;49.798;10.228;2023-12-20T11:34:41;6.93;;;2.00;;
26756;SDS011;23848;49.798;10.228;2023-12-20T11:37:53;6.07;;;2.00;;
26756;SDS011;23848;49.798;10.228;2023-12-20T11:40:42;4.93;;;1.75;;
26756;SDS011;23848;49.798;10.228;2023-12-20T11:43:36;3.28;;;1.23;;
26756;SDS011;23848;49.798;10.228;2023-12-20T11:46:22;3.40;;;1.30;;
26756;SDS011;23848;49.798;10.228;2023-12-20T11:49:04;5.03;;;1.55;;
26756;SDS011;23848;49.798;10.228;2023-12-20T11:51:57;4.63;;;1.30;;
26756;SDS011;23848;49.798;10.228;2023-12-20T11:54:54;2.20;;;1.10;;
26756;SDS011;23848;49.798;10.228;2023-12-20T11:57:39;3.63;;;1.20;;
26756;SDS011;23848;49.798;10.228;2023-12-20T12:00:27;1.92;;;1.20;;
26756;SDS011;23848;49.798;10.228;2023-12-20T12:03:35;4.05;;;1.45;;
26756;SDS011;23848;49.798;10.228;2023-12-20T12:06:27;2.92;;;1.30;;
26756;SDS011;23848;49.798;10.228;2023-12-20T12:12:04;3.15;;;0.90;;
26756;SDS011;23848;49.798;10.228;2023-12-20T12:14:54;1.70;;;1.00;;
26756;SDS011;23848;49.798;10.228;2023-12-20T12:17:34;3.15;;;1.35;;
26756;SDS011;23848;49.798;10.228;2023-12-20T12:20:27;2.45;;;0.95;;
26756;SDS011;23848;49.798;10.228;2023-12-20T12:23:06;2.17;;;1.15;;
26756;SDS011;23848;49.798;10.228;2023-12-20T12:26:18;2.40;;;1.17;;
26756;SDS011;23848;49.798;10.228;2023-12-20T12:32:04;3.00;;;0.80;;
26756;SDS011;23848;49.798;10.228;2023-12-20T12:34:40;2.17;;;0.93;;
26756;SDS011;23848;49.798;10.228;2023-12-20T12:37:31;3.90;;;1.30;;
26756;SDS011;23848;49.798;10.228;2023-12-20T12:40:13;1.98;;;1.40;;
26756;SDS011;23848;49.798;10.228;2023-12-20T12:45:42;3.28;;;1.45;;
26756;SDS011;23848;49.798;10.228;2023-12-20T12:48:27;3.50;;;1.10;;
26756;SDS011;23848;49.798;10.228;2023-12-20T12:51:04;2.08;;;0.95;;
26756;SDS011;23848;49.798;10.228;2023-12-20T12:54:01;3.22;;;1.25;;
26756;SDS011;23848;49.798;10.228;2023-12-20T12:56:45;4.32;;;1.15;;
26756;SDS011;23848;49.798;10.228;2023-12-20T12:59:38;1.38;;;0.70;;
26756;SDS011;23848;49.798;10.228;2023-12-20T13:05:55;2.42;;;1.10;;
26756;SDS011;23848;49.798;10.228;2023-12-20T13:08:46;2.65;;;0.98;;
26756;SDS011;23848;49.798;10.228;2023-12-20T13:11:44;2.08;;;1.17;;
26756;SDS011;23848;49.798;10.228;2023-12-20T13:21:30;2.03;;;1.17;;
26756;SDS011;23848;49.798;10.228;2023-12-20T13:28:47;5.30;;;1.23;;
26756;SDS011;23848;49.798;10.228;2023-12-20T13:31:26;3.55;;;0.90;;
26756;SDS011;23848;49.798;10.228;2023-12-20T13:34:43;3.35;;;0.93;;
26756;SDS011;23848;49.798;10.228;2023-12-20T13:37:44;4.25;;;1.70;;
26756;SDS011;23848;49.798;10.228;2023-12-20T13:40:23;6.40;;;1.67;;
26756;SDS011;23848;49.798;10.228;2023-12-20T13:43:14;1.80;;;0.80;;
26756;SDS011;23848;49.798;10.228;2023-12-20T13:46:19;2.08;;;1.13;;
26756;SDS011;23848;49.798;10.228;2023-12-20T13:49:06;2.45;;;1.02;;
26756;SDS011;23848;49.798;10.228;2023-12-20T13:51:46;1.85;;;1.05;;
26756;SDS011;23848;49.798;10.228;2023-12-20T13:54:28;3.78;;;1.42;;
26756;SDS011;23848;49.798;10.228;2023-12-20T13:57:05;2.83;;;1.00;;
26756;SDS011;23848;49.798;10.228;2023-12-20T16:17:01;4.22;;;1.90;;
26756;SDS011;23848;49.798;10.228;2023-12-20T16:27:18;4.97;;;2.35;;
26756;SDS011;23848;49.798;10.228;2023-12-20T16:31:24;3.63;;;1.98;;
26756;SDS011;23848;49.798;10.228;2023-12-20T16:34:22;3.88;;;2.30;;
26756;SDS011;23848;49.798;10.228;2023-12-20T16:37:18;3.42;;;1.70;;
26756;SDS011;23848;49.798;10.228;2023-12-20T16:40:07;3.42;;;2.00;;
26756;SDS011;23848;49.798;10.228;2023-12-20T16:48:34;4.50;;;1.60;;
26756;SDS011;23848;49.798;10.228;2023-12-20T16:52:35;3.97;;;1.60;;
26756;SDS011;23848;49.798;10.228;2023-12-20T16:55:23;4.93;;;1.70;;
26756;SDS011;23848;49.798;10.228;2023-12-20T16:58:18;2.70;;;1.50;;
26756;SDS011;23848;49.798;10.228;2023-12-20T17:01:13;3.30;;;2.00;;
26756;SDS011;23848;49.798;10.228;2023-12-20T17:07:09;6.05;;;2.08;;
26756;SDS011;23848;49.798;10.228;2023-12-20T17:10:15;3.60;;;1.70;;
26756;SDS011;23848;49.798;10.228;2023-12-20T17:13:04;4.38;;;1.60;;
26756;SDS011;23848;49.798;10.228;2023-12-20T17:15:48;4.15;;;1.70;;
26756;SDS011;23848;49.798;10.228;2023-12-20T17:18:27;4.05;;;1.88;;
26756;SDS011;23848;49.798;10.228;2023-12-20T17:20:59;3.95;;;2.20;;
26756;SDS011;23848;49.798;10.228;2023-12-20T17:23:35;4.38;;;2.00;;
26756;SDS011;23848;49.798;10.228;2023-12-20T17:29:03;5.45;;;1.77;;
26756;SDS011;23848;49.798;10.228;2023-12-20T17:31:43;3.30;;;1.70;;
26756;SDS011;23848;49.798;10.228;2023-12-20T17:34:28;3.72;;;1.60;;
26756;SDS011;23848;49.798;10.228;2023-12-20T17:37:08;4.30;;;1.88;;
26756;SDS011;23848;49.798;10.228;2023-12-20T17:39:44;3.05;;;1.63;;
26756;SDS011;23848;49.798;10.228;2023-12-20T17:42:21;2.50;;;1.33;;
26756;SDS011;23848;49.798;10.228;2023-12-20T17:44:58;3.53;;;1.45;;
26756;SDS011;23848;49.798;10.228;2023-12-20T17:49:22;3.25;;;1.73;;
26756;SDS011;23848;49.798;10.228;2023-12-20T17:55:48;4.53;;;1.63;;
26756;SDS011;23848;49.798;10.228;2023-12-20T17:58:37;2.63;;;1.50;;
26756;SDS011;23848;49.798;10.228;2023-12-20T18:05:28;4.35;;;1.90;;
26756;SDS011;23848;49.798;10.228;2023-12-20T18:08:50;6.18;;;1.85;;
26756;SDS011;23848;49.798;10.228;2023-12-20T18:11:33;5.22;;;2.05;;
26756;SDS011;23848;49.798;10.228;2023-12-20T18:14:45;4.95;;;1.90;;
26756;SDS011;23848;49.798;10.228;2023-12-20T18:18:27;6.15;;;2.38;;
26756;SDS011;23848;49.798;10.228;2023-12-20T18:35:03;2.95;;;1.48;;
26756;SDS011;23848;49.798;10.228;2023-12-20T18:37:47;4.72;;;1.65;;
26756;SDS011;23848;49.798;10.228;2023-12-20T18:40:28;3.47;;;1.77;;
26756;SDS011;23848;49.798;10.228;2023-12-20T18:43:15;3.30;;;1.38;;
26756;SDS011;23848;49.798;10.228;2023-12-20T18:45:49;2.83;;;1.60;;
26756;SDS011;23848;49.798;10.228;2023-12-20T18:48:43;3.47;;;1.83;;
26756;SDS011;23848;49.798;10.228;2023-12-20T18:51:45;6.53;;;2.90;;
26756;SDS011;23848;49.798;10.228;2023-12-20T18:54:29;5.85;;;2.25;;
26756;SDS011;23848;49.798;10.228;2023-12-20T18:57:06;3.30;;;1.48;;
26756;SDS011;23848;49.798;10.228;2023-12-20T18:59:59;3.42;;;1.80;;
26756;SDS011;23848;49.798;10.228;2023-12-20T19:05:31;3.30;;;2.03;;
26756;SDS011;23848;49.798;10.228;2023-12-20T19:11:13;3.88;;;2.17;;
26756;SDS011;23848;49.798;10.228;2023-12-20T19:13:56;4.00;;;1.67;;
26756;SDS011;23848;49.798;10.228;2023-12-20T19:16:39;4.47;;;1.60;;
26756;SDS011;23848;49.798;10.228;2023-12-20T19:19:29;2.55;;;1.65;;